createdAt,value
2023-03-18T00:01:01.802Z,3.22
2023-03-18T00:03:33.044Z,3.22
2023-03-18T00:06:12.128Z,3.19
2023-03-18T00:08:41.279Z,3.16
2023-03-18T00:11:11.531Z,3.11
2023-03-18T00:13:41.774Z,3.12
2023-03-18T00:16:11.724Z,3.13
2023-03-18T00:18:42.595Z,3.13
2023-03-18T00:21:12.437Z,3.13
2023-03-18T00:23:42.889Z,3.12
2023-03-18T00:26:12.148Z,3.09
2023-03-18T00:28:42.018Z,3.07
2023-03-18T00:31:11.723Z,3.05
2023-03-18T00:33:41.387Z,3.04
2023-03-18T00:36:15.778Z,3.04
2023-03-18T00:38:51.255Z,3.04
2023-03-18T00:41:22.334Z,3.03
2023-03-18T00:43:54.328Z,3.03
2023-03-18T00:46:28.776Z,3.02
2023-03-18T00:49:00.641Z,3.01
2023-03-18T00:51:32.549Z,3.01
2023-03-18T00:54:02.789Z,2.99
2023-03-18T00:56:32.208Z,2.99
2023-03-18T00:59:01.530Z,2.99
2023-03-18T01:01:31.563Z,2.98
2023-03-18T01:04:02.338Z,2.99
2023-03-18T01:06:34.265Z,2.98
2023-03-18T01:09:03.157Z,2.97
2023-03-18T01:11:32.314Z,2.97
2023-03-18T01:14:01.237Z,2.98
2023-03-18T01:16:30.837Z,2.99
2023-03-18T01:19:00.166Z,2.98
2023-03-18T01:21:28.977Z,2.97
2023-03-18T01:24:00.903Z,3.00
2023-03-18T01:26:30.933Z,3.01
2023-03-18T01:29:01.623Z,3.00
2023-03-18T01:31:31.698Z,2.99
2023-03-18T01:34:05.058Z,2.98
2023-03-18T01:36:42.900Z,2.95
2023-03-18T01:39:12.641Z,2.94
2023-03-18T01:41:44.949Z,2.92
2023-03-18T01:44:19.395Z,2.92
2023-03-18T01:46:51.172Z,2.92
2023-03-18T01:49:36.719Z,2.93
2023-03-18T01:52:13.078Z,2.95
2023-03-18T01:54:45.684Z,2.95
2023-03-18T01:57:14.579Z,2.94
2023-03-18T01:59:44.351Z,2.89
2023-03-18T02:02:15.277Z,2.88
2023-03-18T02:04:53.961Z,2.88
2023-03-18T02:07:28.625Z,2.88
2023-03-18T02:09:59.159Z,2.85
2023-03-18T02:12:30.677Z,2.83
2023-03-18T02:15:02.276Z,2.82
2023-03-18T02:17:37.383Z,2.82
2023-03-18T02:20:14.014Z,2.83
2023-03-18T02:23:00.670Z,2.81
2023-03-18T02:25:54.083Z,2.79
2023-03-18T02:28:24.973Z,2.79
2023-03-18T02:30:56.333Z,2.80
2023-03-18T02:33:28.770Z,2.81
2023-03-18T02:36:07.989Z,2.80
2023-03-18T02:38:44.248Z,2.80
2023-03-18T02:41:18.505Z,2.79
2023-03-18T02:43:47.446Z,2.77
2023-03-18T02:46:32.002Z,2.76
2023-03-18T02:49:02.061Z,2.75
2023-03-18T02:51:31.219Z,2.75
2023-03-18T02:54:11.072Z,2.73
2023-03-18T02:56:43.576Z,2.73
2023-03-18T02:59:14.565Z,2.75
2023-03-18T03:01:44.942Z,2.77
2023-03-18T03:04:14.062Z,2.76
2023-03-18T03:06:46.126Z,2.75
2023-03-18T03:09:16.384Z,2.75
2023-03-18T03:11:48.296Z,2.74
2023-03-18T03:14:21.822Z,2.75
2023-03-18T03:16:53.235Z,2.74
2023-03-18T03:19:24.025Z,2.75
2023-03-18T03:21:53.130Z,2.76
2023-03-18T03:24:22.536Z,2.77
2023-03-18T03:26:53.408Z,2.75
2023-03-18T03:29:22.126Z,2.73
2023-03-18T03:31:51.303Z,2.72
2023-03-18T03:34:20.344Z,2.72
2023-03-18T03:36:49.206Z,2.71
2023-03-18T03:39:17.804Z,2.69
2023-03-18T03:41:47.265Z,2.64
2023-03-18T03:44:17.812Z,2.62
2023-03-18T03:46:51.218Z,2.61
2023-03-18T03:49:19.818Z,2.59
2023-03-18T03:51:48.439Z,2.58
2023-03-18T03:54:17.015Z,2.64
2023-03-18T03:56:50.028Z,2.66
2023-03-18T03:59:19.075Z,2.67
2023-03-18T04:02:18.604Z,2.68
2023-03-18T04:04:48.665Z,2.67
2023-03-18T04:07:25.137Z,2.65
2023-03-18T04:09:56.103Z,2.63
2023-03-18T04:12:24.972Z,2.63
2023-03-18T04:14:59.790Z,2.61
2023-03-18T04:17:28.366Z,2.59
2023-03-18T04:19:57.909Z,2.60
2023-03-18T04:22:32.158Z,2.61
2023-03-18T04:25:02.263Z,2.63
2023-03-18T04:27:32.468Z,2.64
2023-03-18T04:30:02.525Z,2.61
2023-03-18T04:32:38.344Z,2.60
2023-03-18T04:35:07.692Z,2.59
2023-03-18T04:37:37.691Z,2.59
2023-03-18T04:40:07.240Z,2.56
2023-03-18T04:42:37.541Z,2.59
2023-03-18T04:45:07.494Z,2.61
2023-03-18T04:47:39.564Z,2.63
2023-03-18T04:50:12.388Z,2.64
2023-03-18T04:52:42.116Z,2.64
2023-03-18T04:55:12.459Z,2.63
2023-03-18T04:57:42.942Z,2.64
2023-03-18T05:00:17.536Z,2.64
2023-03-18T05:02:47.101Z,2.63
2023-03-18T05:05:16.063Z,2.64
2023-03-18T05:07:48.181Z,2.66
2023-03-18T05:10:17.487Z,2.67
2023-03-18T05:12:50.659Z,2.67
2023-03-18T05:15:22.960Z,2.66
2023-03-18T05:17:56.198Z,2.64
2023-03-18T05:20:29.037Z,2.60
2023-03-18T05:22:58.473Z,2.57
2023-03-18T05:25:59.647Z,2.55
2023-03-18T05:28:29.225Z,2.52
2023-03-18T05:31:27.386Z,2.50
2023-03-18T05:33:57.319Z,2.53
2023-03-18T05:36:29.857Z,2.55
2023-03-18T05:39:07.639Z,2.56
2023-03-18T05:41:37.576Z,2.58
2023-03-18T05:44:10.452Z,2.59
2023-03-18T05:46:42.101Z,2.60
2023-03-18T05:49:14.913Z,2.62
2023-03-18T05:52:01.755Z,2.63
2023-03-18T05:54:43.680Z,2.64
2023-03-18T05:57:13.907Z,2.67
2023-03-18T05:59:44.128Z,2.69
2023-03-18T06:02:16.479Z,2.73
2023-03-18T06:04:48.432Z,2.78
2023-03-18T06:07:17.151Z,2.80
2023-03-18T06:09:46.272Z,2.81
2023-03-18T06:12:15.235Z,2.80
2023-03-18T06:14:44.301Z,2.77
2023-03-18T06:17:14.335Z,2.75
2023-03-18T06:19:46.015Z,2.74
2023-03-18T06:22:15.573Z,2.75
2023-03-18T06:24:46.515Z,2.75
2023-03-18T06:27:17.272Z,2.74
2023-03-18T06:29:50.553Z,2.71
2023-03-18T06:32:19.642Z,2.72
2023-03-18T06:34:50.854Z,2.72
2023-03-18T06:37:20.228Z,2.71
2023-03-18T06:39:50.304Z,2.71
2023-03-18T06:42:20.069Z,2.70
2023-03-18T06:45:18.474Z,2.73
2023-03-18T06:48:01.120Z,2.75
2023-03-18T06:50:32.143Z,2.78
2023-03-18T06:53:01.830Z,2.81
2023-03-18T06:55:33.590Z,2.80
2023-03-18T06:58:05.800Z,2.80
2023-03-18T07:00:47.943Z,2.80
2023-03-18T07:03:23.438Z,2.80
2023-03-18T07:05:53.013Z,2.81
2023-03-18T07:08:24.222Z,2.84
2023-03-18T07:10:54.758Z,2.86
2023-03-18T07:13:27.573Z,2.89
2023-03-18T07:15:59.190Z,2.92
2023-03-18T07:18:28.281Z,2.91
2023-03-18T07:21:04.779Z,2.89
2023-03-18T07:23:34.600Z,2.90
2023-03-18T07:26:03.612Z,2.92
2023-03-18T07:28:33.231Z,2.95
2023-03-18T07:31:02.301Z,2.95
2023-03-18T07:33:36.033Z,2.99
2023-03-18T07:36:05.817Z,3.01
2023-03-18T07:38:35.281Z,3.02
2023-03-18T07:41:04.008Z,3.04
2023-03-18T07:43:32.683Z,3.06
2023-03-18T07:46:07.078Z,3.04
2023-03-18T07:48:37.497Z,3.00
2023-03-18T07:51:06.123Z,2.94
2023-03-18T07:53:36.572Z,2.88
2023-03-18T07:56:05.611Z,2.86
2023-03-18T07:58:39.026Z,2.86
2023-03-18T08:01:08.018Z,2.90
2023-03-18T08:03:37.419Z,2.96
2023-03-18T08:06:06.464Z,2.98
2023-03-18T08:08:35.787Z,3.00
2023-03-18T08:11:08.734Z,3.01
2023-03-18T08:13:39.065Z,3.07
2023-03-18T08:16:07.886Z,3.11
2023-03-18T08:18:38.318Z,3.15
2023-03-18T08:21:08.123Z,3.19
2023-03-18T08:23:37.345Z,3.18
2023-03-18T08:26:07.929Z,3.16
2023-03-18T08:28:38.779Z,3.20
2023-03-18T08:31:09.909Z,3.20
2023-03-18T08:33:39.114Z,3.18
2023-03-18T08:36:08.766Z,3.18
2023-03-18T08:38:37.778Z,3.21
2023-03-18T08:41:06.876Z,3.22
2023-03-18T08:43:37.969Z,3.22
2023-03-18T08:46:09.257Z,3.27
2023-03-18T08:48:37.699Z,3.32
2023-03-18T08:51:09.550Z,3.35
2023-03-18T08:53:40.101Z,3.42
2023-03-18T08:56:15.091Z,3.45
2023-03-18T08:58:48.548Z,3.48
2023-03-18T09:01:17.929Z,3.52
2023-03-18T09:03:47.294Z,3.61
2023-03-18T09:06:16.099Z,3.71
2023-03-18T09:08:45.064Z,3.76
2023-03-18T09:11:31.770Z,3.74
2023-03-18T09:14:21.316Z,3.72
2023-03-18T09:16:56.462Z,3.67
2023-03-18T09:19:26.500Z,3.61
2023-03-18T09:21:56.398Z,3.57
2023-03-18T09:24:28.140Z,3.59
2023-03-18T09:27:01.029Z,3.59
2023-03-18T09:30:01.412Z,3.60
2023-03-18T09:32:34.018Z,3.63
2023-03-18T09:35:03.944Z,3.66
2023-03-18T09:37:33.115Z,3.68
2023-03-18T09:40:02.075Z,3.68
2023-03-18T09:43:00.378Z,3.71
2023-03-18T09:45:41.253Z,3.74
2023-03-18T09:48:39.305Z,3.77
2023-03-18T09:51:19.313Z,3.79
2023-03-18T09:54:21.351Z,3.81
2023-03-18T09:56:51.218Z,3.85
2023-03-18T09:59:25.648Z,3.84
2023-03-18T10:01:54.997Z,3.83
2023-03-18T10:04:44.584Z,3.81
2023-03-18T10:07:18.008Z,3.79
2023-03-18T10:09:49.006Z,3.79
2023-03-18T10:12:24.413Z,3.83
2023-03-18T10:15:12.511Z,3.87
2023-03-18T10:17:54.684Z,3.90
2023-03-18T10:21:14.693Z,3.90
2023-03-18T10:24:13.270Z,3.90
2023-03-18T10:26:49.227Z,3.94
2023-03-18T10:29:32.198Z,3.97
2023-03-18T10:32:48.759Z,3.99
2023-03-18T10:35:35.247Z,4.03
2023-03-18T10:38:08.457Z,3.97
2023-03-18T10:40:38.883Z,3.91
2023-03-18T10:43:28.496Z,3.89
2023-03-18T10:46:04.436Z,3.85
2023-03-18T10:48:46.957Z,3.85
2023-03-18T10:51:34.905Z,3.88
2023-03-18T10:54:13.799Z,3.93
2023-03-18T10:56:43.931Z,3.99
2023-03-18T10:59:15.554Z,4.06
2023-03-18T11:02:14.482Z,4.18
2023-03-18T11:04:54.642Z,4.34
2023-03-18T11:07:26.217Z,4.49
2023-03-18T11:09:55.366Z,4.60
2023-03-18T11:12:26.181Z,4.64
2023-03-18T11:14:56.535Z,4.62
2023-03-18T11:17:31.748Z,4.62
2023-03-18T11:20:07.755Z,4.62
2023-03-18T11:22:37.303Z,4.66
2023-03-18T11:25:14.067Z,4.67
2023-03-18T11:27:49.231Z,4.64
2023-03-18T11:30:33.500Z,4.59
2023-03-18T11:33:13.846Z,4.48
2023-03-18T11:35:50.760Z,4.40
2023-03-18T11:38:23.327Z,4.37
2023-03-18T11:40:52.221Z,4.36
2023-03-18T11:43:22.958Z,4.40
2023-03-18T11:46:08.427Z,4.45
2023-03-18T11:48:40.019Z,4.46
2023-03-18T11:51:47.537Z,4.42
2023-03-18T11:54:43.498Z,4.37
2023-03-18T11:57:32.482Z,4.40
2023-03-18T12:00:25.549Z,4.47
2023-03-18T12:03:25.462Z,4.51
2023-03-18T12:06:17.069Z,4.53
2023-03-18T12:09:01.030Z,4.57
2023-03-18T12:11:57.692Z,4.57
2023-03-18T12:14:46.370Z,4.54
2023-03-18T12:17:33.112Z,4.52
2023-03-18T12:20:15.727Z,4.48
2023-03-18T12:23:11.351Z,4.45
2023-03-18T12:25:51.020Z,4.41
2023-03-18T12:28:38.255Z,4.40
2023-03-18T12:31:11.416Z,4.39
2023-03-18T12:33:56.789Z,4.36
2023-03-18T12:37:06.431Z,4.36
2023-03-18T12:40:08.099Z,4.43
2023-03-18T12:43:32.142Z,4.46
2023-03-18T12:46:10.573Z,4.50
2023-03-18T12:48:53.232Z,4.54
2023-03-18T12:51:25.898Z,4.59
2023-03-18T12:53:57.037Z,4.64
2023-03-18T12:56:27.871Z,4.63
2023-03-18T12:59:33.686Z,4.58
2023-03-18T13:02:41.523Z,4.54
2023-03-18T13:05:24.885Z,4.53
2023-03-18T13:08:24.903Z,4.51
2023-03-18T13:11:15.866Z,4.48
2023-03-18T13:13:48.759Z,4.44
2023-03-18T13:16:18.005Z,4.44
2023-03-18T13:18:52.567Z,4.44
2023-03-18T13:21:26.634Z,4.43
2023-03-18T13:24:30.304Z,4.42
2023-03-18T13:27:27.034Z,4.44
2023-03-18T13:30:22.837Z,4.40
2023-03-18T13:32:54.529Z,4.31
2023-03-18T13:35:35.281Z,4.25
2023-03-18T13:38:33.178Z,4.23
2023-03-18T13:41:01.926Z,4.22
2023-03-18T13:43:32.385Z,4.20
2023-03-18T13:46:01.207Z,4.15
2023-03-18T13:48:34.371Z,4.11
2023-03-18T13:51:25.275Z,4.09
2023-03-18T13:53:55.132Z,4.10
2023-03-18T13:56:35.126Z,4.13
2023-03-18T13:59:06.767Z,4.14
2023-03-18T14:01:51.071Z,4.11
2023-03-18T14:04:20.828Z,4.04
2023-03-18T14:06:57.549Z,4.01
2023-03-18T14:09:27.208Z,4.00
2023-03-18T14:12:24.159Z,3.96
2023-03-18T14:15:13.315Z,3.93
2023-03-18T14:17:49.622Z,3.91
2023-03-18T14:20:25.774Z,3.93
2023-03-18T14:23:20.345Z,3.94
2023-03-18T14:25:54.790Z,3.91
2023-03-18T14:28:24.553Z,3.87
2023-03-18T14:31:40.015Z,3.84
2023-03-18T14:34:18.305Z,3.85
2023-03-18T14:36:52.981Z,3.85
2023-03-18T14:39:42.719Z,3.83
2023-03-18T14:42:31.999Z,3.81
2023-03-18T14:45:05.476Z,3.76
2023-03-18T14:47:54.749Z,3.75
2023-03-18T14:50:57.818Z,3.71
2023-03-18T14:53:52.915Z,3.69
2023-03-18T14:56:29.165Z,3.68
2023-03-18T14:58:58.008Z,3.65
2023-03-18T15:01:40.723Z,3.62
2023-03-18T15:04:11.434Z,3.58
2023-03-18T15:06:41.248Z,3.53
2023-03-18T15:09:15.353Z,3.48
2023-03-18T15:11:45.679Z,3.45
2023-03-18T15:14:21.764Z,3.43
2023-03-18T15:16:52.645Z,3.41
2023-03-18T15:19:28.123Z,3.42
2023-03-18T15:22:06.576Z,3.43
2023-03-18T15:24:35.959Z,3.43
2023-03-18T15:27:08.826Z,3.42
2023-03-18T15:30:27.344Z,3.42
2023-03-18T15:33:07.554Z,3.43
2023-03-18T15:35:45.690Z,3.41
2023-03-18T15:38:20.231Z,3.39
2023-03-18T15:40:53.098Z,3.37
2023-03-18T15:43:38.878Z,3.34
2023-03-18T15:46:14.514Z,3.33
2023-03-18T15:48:54.466Z,3.31
2023-03-18T15:51:30.458Z,3.28
2023-03-18T15:54:04.953Z,3.24
2023-03-18T15:56:34.566Z,3.23
2023-03-18T15:59:14.716Z,3.24
2023-03-18T16:01:43.753Z,3.22
2023-03-18T16:04:17.342Z,3.20
2023-03-18T16:06:46.976Z,3.19
2023-03-18T16:09:20.530Z,3.17
2023-03-18T16:11:54.527Z,3.15
2023-03-18T16:14:26.259Z,3.13
2023-03-18T16:16:55.079Z,3.11
2023-03-18T16:19:28.096Z,3.10
2023-03-18T16:21:58.876Z,3.10
2023-03-18T16:24:29.534Z,3.09
2023-03-18T16:26:58.468Z,3.07
2023-03-18T16:29:30.068Z,3.06
2023-03-18T16:32:00.977Z,3.04
2023-03-18T16:34:30.389Z,3.03
2023-03-18T16:36:59.305Z,3.03
2023-03-18T16:39:34.396Z,3.01
2023-03-18T16:42:10.537Z,3.02
2023-03-18T16:44:39.550Z,3.03
2023-03-18T16:47:17.065Z,3.02
2023-03-18T16:49:46.430Z,2.99
2023-03-18T16:52:15.488Z,2.99
2023-03-18T16:54:44.350Z,3.00
2023-03-18T16:57:18.108Z,3.00
2023-03-18T16:59:52.119Z,2.96
2023-03-18T17:02:31.301Z,2.93
2023-03-18T17:05:00.253Z,2.91
2023-03-18T17:07:30.044Z,2.91
2023-03-18T17:09:59.257Z,2.91
2023-03-18T17:12:29.372Z,2.91
2023-03-18T17:14:59.597Z,2.89
2023-03-18T17:17:33.910Z,2.88
2023-03-18T17:20:04.338Z,2.88
2023-03-18T17:22:33.836Z,2.87
2023-03-18T17:25:02.717Z,2.87
2023-03-18T17:27:34.169Z,2.85
2023-03-18T17:30:03.895Z,2.85
2023-03-18T17:32:33.020Z,2.86
2023-03-18T17:35:01.860Z,2.85
2023-03-18T17:37:30.702Z,2.83
2023-03-18T17:40:07.072Z,2.81
2023-03-18T17:42:37.925Z,2.81
2023-03-18T17:45:27.641Z,2.80
2023-03-18T17:48:15.757Z,2.76
2023-03-18T17:50:44.996Z,2.77
2023-03-18T17:53:39.097Z,2.77
2023-03-18T17:56:10.479Z,2.76
2023-03-18T17:58:44.821Z,2.75
2023-03-18T18:01:18.398Z,2.74
2023-03-18T18:03:48.037Z,2.71
2023-03-18T18:06:19.013Z,2.67
2023-03-18T18:08:49.045Z,2.64
2023-03-18T18:11:28.627Z,2.62
2023-03-18T18:14:29.081Z,2.61
2023-03-18T18:16:58.152Z,2.59
2023-03-18T18:19:27.284Z,2.59
2023-03-18T18:21:57.035Z,2.58
2023-03-18T18:24:28.153Z,2.57
2023-03-18T18:26:57.654Z,2.57
2023-03-18T18:29:28.570Z,2.57
2023-03-18T18:31:58.290Z,2.57
2023-03-18T18:34:28.506Z,2.56
2023-03-18T18:36:57.397Z,2.55
2023-03-18T18:39:26.113Z,2.55
2023-03-18T18:42:04.412Z,2.54
2023-03-18T18:44:35.770Z,2.54
2023-03-18T18:47:20.544Z,2.54
2023-03-18T18:49:52.348Z,2.53
2023-03-18T18:52:23.127Z,2.51
2023-03-18T18:54:55.896Z,2.51
2023-03-18T18:57:27.013Z,2.50
2023-03-18T18:59:58.567Z,2.50
2023-03-18T19:02:37.654Z,2.48
2023-03-18T19:05:08.292Z,2.48
2023-03-18T19:07:37.239Z,2.48
2023-03-18T19:10:06.717Z,2.47
2023-03-18T19:12:35.842Z,2.47
2023-03-18T19:15:07.208Z,2.47
2023-03-18T19:17:36.843Z,2.49
2023-03-18T19:20:08.667Z,2.51
2023-03-18T19:22:38.812Z,2.50
2023-03-18T19:25:10.052Z,2.51
2023-03-18T19:27:38.856Z,2.50
2023-03-18T19:30:21.140Z,2.50
2023-03-18T19:32:50.960Z,2.47
2023-03-18T19:35:19.615Z,2.45
2023-03-18T19:37:48.536Z,2.44
2023-03-18T19:40:23.166Z,2.42
2023-03-18T19:42:52.330Z,2.41
2023-03-18T19:45:21.649Z,2.39
2023-03-18T19:47:52.757Z,2.38
2023-03-18T19:50:21.841Z,2.39
2023-03-18T19:52:57.049Z,2.40
2023-03-18T19:55:27.871Z,2.41
2023-03-18T19:57:56.478Z,2.42
2023-03-18T20:00:25.837Z,2.43
2023-03-18T20:02:55.838Z,2.42
2023-03-18T20:05:28.122Z,2.43
2023-03-18T20:07:56.819Z,2.43
2023-03-18T20:10:25.541Z,2.43
2023-03-18T20:13:00.043Z,2.44
2023-03-18T20:15:29.669Z,2.44
2023-03-18T20:18:00.902Z,2.44
2023-03-18T20:20:32.340Z,2.43
2023-03-18T20:23:05.360Z,2.43
2023-03-18T20:25:36.813Z,2.43
2023-03-18T20:28:08.737Z,2.42
2023-03-18T20:30:39.402Z,2.42
2023-03-18T20:33:08.730Z,2.42
2023-03-18T20:35:39.958Z,2.42
2023-03-18T20:38:31.823Z,2.41
2023-03-18T20:41:01.187Z,2.41
2023-03-18T20:43:30.444Z,2.40
2023-03-18T20:46:01.066Z,2.39
2023-03-18T20:48:30.635Z,2.37
2023-03-18T20:51:00.003Z,2.36
2023-03-18T20:53:29.157Z,2.34
2023-03-18T20:55:58.621Z,2.34
2023-03-18T20:58:28.366Z,2.34
2023-03-18T21:00:57.800Z,2.34
2023-03-18T21:03:29.614Z,2.34
2023-03-18T21:05:59.609Z,2.34
2023-03-18T21:08:28.565Z,2.34
2023-03-18T21:11:04.573Z,2.34
2023-03-18T21:13:39.384Z,2.34
2023-03-18T21:16:13.136Z,2.31
2023-03-18T21:18:48.608Z,2.31
2023-03-18T21:21:31.630Z,2.31
2023-03-18T21:24:00.422Z,2.31
2023-03-18T21:26:29.414Z,2.31
2023-03-18T21:28:58.534Z,2.30
2023-03-18T21:31:31.761Z,2.29
2023-03-18T21:34:01.336Z,2.30
2023-03-18T21:36:31.313Z,2.30
2023-03-18T21:38:59.914Z,2.29
2023-03-18T21:41:29.431Z,2.28
2023-03-18T21:43:58.239Z,2.27
2023-03-18T21:46:28.917Z,2.26
2023-03-18T21:48:57.960Z,2.27
2023-03-18T21:51:38.749Z,2.25
2023-03-18T21:54:18.227Z,2.23
2023-03-18T21:56:48.468Z,2.24
2023-03-18T21:59:17.651Z,2.23
2023-03-18T22:01:46.884Z,2.23
2023-03-18T22:04:15.802Z,2.23
2023-03-18T22:06:44.613Z,2.21
2023-03-18T22:09:15.104Z,2.21
2023-03-18T22:11:43.875Z,2.21
2023-03-18T22:14:13.671Z,2.21
2023-03-18T22:16:42.923Z,2.22
2023-03-18T22:19:11.445Z,2.22
2023-03-18T22:21:40.857Z,2.25
2023-03-18T22:24:13.959Z,2.26
2023-03-18T22:26:42.483Z,2.25
2023-03-18T22:29:12.923Z,2.25
2023-03-18T22:31:44.025Z,2.25
2023-03-18T22:34:22.074Z,2.25
2023-03-18T22:36:50.964Z,2.25
2023-03-18T22:39:27.809Z,2.24
2023-03-18T22:41:56.446Z,2.22
2023-03-18T22:44:25.060Z,2.21
2023-03-18T22:46:53.788Z,2.21
2023-03-18T22:49:26.069Z,2.18
2023-03-18T22:51:57.540Z,2.16
2023-03-18T22:54:27.734Z,2.15
2023-03-18T22:56:58.779Z,2.13
2023-03-18T22:59:27.481Z,2.12
2023-03-18T23:01:56.079Z,2.12
2023-03-18T23:04:25.971Z,2.12
2023-03-18T23:06:59.372Z,2.10
2023-03-18T23:09:28.589Z,2.08
2023-03-18T23:11:57.279Z,2.07
2023-03-18T23:14:26.077Z,2.05
2023-03-18T23:16:54.677Z,2.04
2023-03-18T23:19:26.325Z,2.03
2023-03-18T23:22:02.030Z,2.02
2023-03-18T23:24:33.905Z,2.01
2023-03-18T23:27:09.401Z,1.98
2023-03-18T23:29:38.078Z,1.95
2023-03-18T23:32:07.398Z,1.94
2023-03-18T23:34:39.095Z,1.93
2023-03-18T23:37:07.839Z,1.93
2023-03-18T23:39:39.896Z,1.91
2023-03-18T23:42:16.756Z,1.90
2023-03-18T23:44:46.031Z,1.91
2023-03-18T23:47:14.816Z,1.90
2023-03-18T23:49:45.753Z,1.89
2023-03-18T23:52:14.671Z,1.88
2023-03-18T23:54:43.662Z,1.87
2023-03-18T23:57:14.002Z,1.86
2023-03-18T23:59:43.212Z,1.86
